East Princeton, MA (01517)

10:35 PM EDT on July 30, 2015 (GMT -0400)
Wilder Road | | Change Station
CLOSE
Current Station
Personal Weather Station
Location: Sterling, MA
Elevation: 489 ft
Nearby Weather Stations

Elev 489 ft 42.44 °N, 71.80 °W | Updated 17 seconds ago

Overcast
Overcast
69.3 °F
Feels Like 69.3 °F
N
0.0
Wind Variable Wind from NE
Gusts 1.0 mph

Today
High -- | Low -- °F
--% Chance of Precip.
Yesterday
High -- | Low -- °F
Precip. -- in
5:37 AM 8:09 PM
Full, 100% visible
Pressure 29.81 in
Visibility 10.0 miles
Clouds Overcast 7000 ft
Dew Point 68 °F
Humidity 97%
Rainfall 0.70 in
Snow Depth Not available.
UV 0 out of 12
Pollen 4.80 out of 12
Air Quality Not available.
Flu Activity Not available.
METAR KFIT 310152Z AUTO 01003KT 10SM OVC070 22/19 A2982 RMK AO2 RAB07E37 SLP095 P0004 T02220194

More Conditions Fewer Conditions

Pressure 29.81 in
Visibility 10.0 miles
Clouds Overcast 7000 ft
Dew Point 68 °F
Humidity 97%
Rainfall 0.70 in
Snow Depth Not available.
UV 0 out of 12
Pollen 4.80 out of 12
Air Quality Not available.
Flu Activity Not available.
METAR KFIT 310152Z AUTO 01003KT 10SM OVC070 22/19 A2982 RMK AO2 RAB07E37 SLP095 P0004 T02220194

More Conditions Fewer Conditions

10-Day Weather Forecast

×

Almanac

Astronomy

Jul. 30, 2015 Rise Set
Actual Time
Civil Twilight
Nautical Twilight
Astronomical Twilight
Moon
Length of Visible Light
Length of Day
Tomorrow will be .
, % of the Moon is Illuminated

Today's Extremes

State Highs State Lows

Community

WunderPhotos

Upload Photos

1,842,587 photos uploaded!

WunderBlogs® & News

Nearby

Air Quality

  Air Quality AQ Index Pollutant
Not available.

Snow Depth

Station Depth Elevation

Earthquake Activity

City Distance Mag. Time & Date
Minimum magnitude displayed is 2.5.

Coastal Water Temperatures

Place Temperature

Stations

Nearby Weather Stations

Station Location Temp. Windchill Dew Point Humidity Wind Precip. Elev Updated Type